Terminal Aerodrome Forecast
Issued by NWS St Louis, MO

Home | Current Version | Previous Version | Text Only | Print | Product List | Glossary On
Versions: 1 2 3 4 5 6 7 8 9 10 11 12
000
FTUS43 KLSX 181700
TAFCOU
TAF
KCOU 181740Z 1818/1918 27014G22KT P6SM SCT040
     FM182300 18008KT P6SM SKC
     FM190500 19010KT P6SM BKN120 WS020/25045KT
     FM191000 23011KT P6SM BKN100
     FM191500 28013KT P6SM BKN040=

USA.gov is the U.S. government's official web portal to all federal, state and local government web resources and services.